Time;durP1;ratioP1;P1;durP2;ratioP2;P2;SDS_P1;SDS_P2;PMS_P1;PMS_P2;Temp;Humidity;BMP_temperature;BMP_pressure;BME280_temperature;BME280_humidity;BME280_pressure;Samples;Min_cycle;Max_cycle;Signal;HPM_P1;HPM_P2
2023/04/16 00:00:03;;;;;;;14.70;12.13;;;7.80;99.90;;;;;;4996895;28;20294;-67
2023/04/16 00:02:29;;;;;;;12.70;11.40;;;7.90;99.90;;;;;;5015055;28;20666;-67
2023/04/16 00:04:55;;;;;;;12.17;10.93;;;7.90;99.90;;;;;;5014799;28;20438;-67
2023/04/16 00:07:20;;;;;;;12.83;10.90;;;7.90;99.90;;;;;;5014929;28;20182;-67
2023/04/16 00:09:46;;;;;;;12.50;10.53;;;7.90;99.90;;;;;;5014331;28;20225;-67
2023/04/16 00:12:11;;;;;;;13.70;11.63;;;7.90;99.90;;;;;;5014886;28;20225;-68
2023/04/16 00:14:37;;;;;;;15.70;13.33;;;7.90;99.90;;;;;;5014662;28;20198;-68
2023/04/16 00:17:02;;;;;;;13.43;11.27;;;7.90;99.90;;;;;;5014839;28;20640;-68
2023/04/16 00:19:28;;;;;;;11.97;10.30;;;7.90;99.90;;;;;;5014063;28;20202;-68
2023/04/16 00:21:53;;;;;;;13.17;11.80;;;7.90;99.90;;;;;;5014655;28;20197;-67
2023/04/16 00:24:19;;;;;;;12.40;10.90;;;7.90;99.90;;;;;;5014572;28;20187;-67
2023/04/16 00:26:45;;;;;;;13.47;11.27;;;7.80;99.90;;;;;;5014555;28;20179;-68
2023/04/16 00:29:11;;;;;;;14.00;12.30;;;7.80;99.90;;;;;;5013969;28;20164;-68
2023/04/16 00:31:37;;;;;;;14.63;13.13;;;7.80;99.90;;;;;;5014455;28;20918;-68
2023/04/16 00:34:02;;;;;;;13.77;12.27;;;7.80;99.90;;;;;;5014265;28;20464;-67
2023/04/16 00:36:28;;;;;;;15.33;13.20;;;7.80;99.90;;;;;;5014355;28;20182;-67
2023/04/16 00:38:55;;;;;;;14.80;13.00;;;7.80;99.90;;;;;;5013767;28;20226;-68
2023/04/16 00:41:21;;;;;;;13.73;12.33;;;7.70;99.90;;;;;;5014387;28;20245;-66
2023/04/16 00:43:47;;;;;;;12.67;11.37;;;7.70;99.90;;;;;;5013954;28;20453;-67
2023/04/16 00:46:15;;;;;;;14.83;11.87;;;7.80;99.90;;;;;;5013547;28;20829;-67
2023/04/16 00:48:42;;;;;;;15.77;11.97;;;7.80;99.90;;;;;;5013533;28;20179;-68
2023/04/16 00:51:08;;;;;;;14.40;12.90;;;7.80;99.90;;;;;;5013984;28;20428;-67
2023/04/16 00:53:34;;;;;;;12.97;10.90;;;7.80;99.90;;;;;;5013880;28;20465;-66
2023/04/16 00:56:05;;;;;;;11.20;10.00;;;7.80;99.90;;;;;;5013954;28;20715;-67
2023/04/16 00:58:32;;;;;;;15.60;11.87;;;7.80;99.90;;;;;;5013241;28;20425;-68
2023/04/16 01:00:57;;;;;;;11.63;10.27;;;7.80;99.90;;;;;;5013928;28;20786;-68
2023/04/16 01:03:33;;;;;;;11.50;9.67;;;7.80;99.90;;;;;;5013777;28;20525;-68
2023/04/16 01:06:00;;;;;;;12.30;11.03;;;7.80;99.90;;;;;;5014045;28;20254;-68
2023/04/16 01:08:25;;;;;;;12.40;10.37;;;7.80;99.90;;;;;;5013252;28;20429;-67
2023/04/16 01:10:51;;;;;;;11.30;10.10;;;7.80;99.90;;;;;;5013704;28;20516;-67
2023/04/16 01:13:16;;;;;;;11.77;10.07;;;7.80;99.90;;;;;;5013503;28;20231;-68
2023/04/16 01:15:42;;;;;;;10.87;9.73;;;7.90;99.90;;;;;;5013619;28;20178;-67
2023/04/16 01:18:15;;;;;;;11.50;10.30;;;7.80;99.90;;;;;;5013491;28;20174;-68
2023/04/16 01:20:40;;;;;;;11.77;9.93;;;7.80;99.90;;;;;;5013522;28;20167;-67
2023/04/16 01:23:06;;;;;;;11.33;10.00;;;7.80;99.90;;;;;;5013416;28;20422;-67
2023/04/16 01:25:31;;;;;;;11.43;9.37;;;7.80;99.90;;;;;;5013450;28;20214;-68
2023/04/16 01:27:58;;;;;;;11.33;10.00;;;7.80;99.90;;;;;;5013384;28;20212;-67
2023/04/16 01:30:23;;;;;;;10.70;9.47;;;7.80;99.90;;;;;;5012924;28;20162;-67
2023/04/16 01:32:49;;;;;;;10.77;9.70;;;7.80;99.90;;;;;;5013110;28;20790;-67
2023/04/16 01:35:16;;;;;;;10.30;8.70;;;7.80;99.90;;;;;;5013144;28;20461;-68
2023/04/16 01:37:42;;;;;;;10.73;9.47;;;7.80;99.90;;;;;;5013199;28;20166;-67
2023/04/16 01:40:08;;;;;;;9.90;8.90;;;7.80;99.90;;;;;;5012698;28;20433;-68
2023/04/16 01:42:34;;;;;;;10.17;9.13;;;7.80;99.90;;;;;;5013390;28;20182;-66
2023/04/16 01:44:59;;;;;;;10.43;9.33;;;7.80;99.90;;;;;;5012863;28;20243;-68
2023/04/16 01:47:25;;;;;;;10.23;9.20;;;7.80;99.90;;;;;;5012924;28;20174;-67
2023/04/16 01:49:51;;;;;;;10.20;9.20;;;7.80;99.90;;;;;;5012428;28;20254;-68
2023/04/16 01:52:16;;;;;;;9.70;8.67;;;7.80;99.90;;;;;;5013039;28;20175;-67
2023/04/16 01:54:42;;;;;;;9.17;8.10;;;7.80;99.90;;;;;;5012798;28;20264;-68
2023/04/16 01:57:08;;;;;;;9.50;8.50;;;7.70;99.90;;;;;;5012580;28;20166;-67
2023/04/16 01:59:33;;;;;;;8.60;7.40;;;7.70;99.90;;;;;;5012273;28;20601;-67
2023/04/16 02:02:14;;;;;;;10.80;9.70;;;7.70;99.90;;;;;;5012775;28;20175;-68
2023/04/16 02:04:42;;;;;;;10.60;8.10;;;7.70;99.90;;;;;;5012683;28;20274;-66
2023/04/16 02:07:08;;;;;;;8.97;8.07;;;7.80;99.90;;;;;;5012708;28;20938;-68
2023/04/16 02:09:34;;;;;;;10.27;9.23;;;7.80;99.90;;;;;;5012134;28;20461;-68
2023/04/16 02:12:03;;;;;;;8.83;7.60;;;7.70;99.90;;;;;;5012653;28;20418;-67
2023/04/16 02:14:30;;;;;;;10.10;8.90;;;7.70;99.90;;;;;;5012512;28;20461;-67
2023/04/16 02:16:55;;;;;;;9.30;8.33;;;7.70;99.90;;;;;;5012480;28;20471;-67
2023/04/16 02:19:21;;;;;;;9.40;8.20;;;7.70;99.90;;;;;;5012237;28;20512;-66
2023/04/16 02:21:47;;;;;;;8.80;7.33;;;7.70;99.90;;;;;;5012555;28;20171;-68
2023/04/16 02:24:12;;;;;;;8.90;7.97;;;7.70;99.90;;;;;;5012425;28;20210;-67
2023/04/16 02:26:38;;;;;;;9.10;8.03;;;7.70;99.90;;;;;;5012451;28;20417;-68
2023/04/16 02:29:04;;;;;;;9.93;8.20;;;7.70;99.90;;;;;;5011847;28;20175;-67
2023/04/16 02:31:30;;;;;;;9.13;8.10;;;7.70;99.90;;;;;;5012608;28;20183;-68
2023/04/16 02:33:56;;;;;;;8.87;7.97;;;7.70;99.90;;;;;;5012309;28;20198;-68
2023/04/16 02:36:21;;;;;;;9.23;7.63;;;7.70;99.90;;;;;;5012331;28;20420;-68
2023/04/16 02:38:47;;;;;;;9.13;8.00;;;7.70;99.90;;;;;;5012030;28;20250;-67
2023/04/16 02:41:12;;;;;;;9.20;7.40;;;7.80;99.90;;;;;;5012343;28;20181;-68
2023/04/16 02:43:38;;;;;;;9.13;7.77;;;7.70;99.90;;;;;;5011945;28;20214;-67
2023/04/16 02:46:03;;;;;;;8.20;7.40;;;7.70;99.90;;;;;;5011439;28;20179;-67
2023/04/16 02:48:29;;;;;;;7.23;6.30;;;7.80;99.90;;;;;;4994003;28;20221;-68
2023/04/16 02:50:55;;;;;;;8.70;7.90;;;7.70;99.90;;;;;;5012197;28;20179;-67
2023/04/16 02:53:20;;;;;;;8.03;7.20;;;7.70;99.90;;;;;;5012129;28;20300;-67
2023/04/16 02:55:51;;;;;;;8.67;7.77;;;7.70;99.90;;;;;;5012166;28;20166;-67
2023/04/16 02:58:17;;;;;;;7.40;6.63;;;7.70;99.90;;;;;;5011920;28;20174;-67
2023/04/16 03:00:43;;;;;;;10.63;8.00;;;7.70;99.90;;;;;;5012006;28;20426;-67
2023/04/16 03:03:08;;;;;;;10.47;7.57;;;7.70;99.90;;;;;;5012301;28;20512;-67
2023/04/16 03:05:34;;;;;;;9.27;7.40;;;7.70;99.90;;;;;;5012026;28;20175;-67
2023/04/16 03:07:59;;;;;;;8.77;7.43;;;7.70;99.90;;;;;;5012692;28;20175;-67
2023/04/16 03:10:25;;;;;;;9.73;7.97;;;7.80;99.90;;;;;;5015546;28;20629;-68
2023/04/16 03:12:50;;;;;;;8.93;7.80;;;7.80;99.90;;;;;;5015810;28;20199;-68
2023/04/16 03:15:16;;;;;;;9.60;8.60;;;7.80;99.90;;;;;;5015748;28;20241;-67
2023/04/16 03:17:42;;;;;;;9.63;8.07;;;7.70;99.90;;;;;;5015881;28;20225;-68
2023/04/16 03:20:09;;;;;;;11.40;8.40;;;7.70;99.90;;;;;;5015357;28;20690;-68
2023/04/16 03:22:34;;;;;;;10.13;7.57;;;7.70;99.90;;;;;;5015924;28;20202;-67
2023/04/16 03:25:00;;;;;;;10.10;8.77;;;7.70;99.90;;;;;;5015683;28;20469;-67
2023/04/16 03:27:25;;;;;;;10.23;7.60;;;7.70;99.90;;;;;;5015608;28;20633;-68
2023/04/16 03:29:51;;;;;;;11.87;8.80;;;7.70;99.90;;;;;;5014975;28;20175;-67
2023/04/16 03:32:16;;;;;;;12.80;10.03;;;7.70;99.90;;;;;;5015583;28;20202;-67
2023/04/16 03:34:43;;;;;;;11.67;9.63;;;7.70;99.90;;;;;;5015439;28;20210;-67
2023/04/16 03:37:10;;;;;;;12.60;9.03;;;7.60;99.90;;;;;;5015495;28;20209;-67
2023/04/16 03:39:36;;;;;;;15.17;10.47;;;7.60;99.90;;;;;;5014939;28;20788;-67
2023/04/16 03:42:02;;;;;;;11.50;8.90;;;7.70;99.90;;;;;;5015187;28;20425;-68
2023/04/16 03:44:28;;;;;;;11.20;8.57;;;7.70;99.90;;;;;;5014571;28;20200;-67
2023/04/16 03:46:53;;;;;;;13.50;9.60;;;7.70;99.90;;;;;;5015388;28;20688;-67
2023/04/16 03:49:19;;;;;;;10.20;8.97;;;7.60;99.90;;;;;;5014519;28;20179;-67
2023/04/16 03:51:45;;;;;;;10.30;8.47;;;7.60;99.90;;;;;;5015198;28;20178;-67
2023/04/16 03:54:10;;;;;;;11.43;8.23;;;7.60;99.90;;;;;;5014971;28;20701;-67
2023/04/16 03:56:36;;;;;;;10.37;8.50;;;7.50;99.90;;;;;;5015251;28;20175;-67
2023/04/16 03:59:01;;;;;;;8.33;7.13;;;7.50;99.90;;;;;;5014267;28;20167;-67
2023/04/16 04:01:27;;;;;;;13.23;9.30;;;7.50;99.90;;;;;;5015003;28;20254;-67
2023/04/16 04:03:52;;;;;;;11.80;9.30;;;7.50;99.90;;;;;;5014932;28;20194;-67
2023/04/16 04:06:18;;;;;;;13.10;9.03;;;7.60;99.90;;;;;;5014979;28;20233;-67
2023/04/16 04:08:43;;;;;;;11.90;9.03;;;7.50;99.90;;;;;;5014104;28;20175;-67
2023/04/16 04:11:09;;;;;;;10.93;9.07;;;7.50;99.90;;;;;;5015118;28;20175;-67
2023/04/16 04:13:34;;;;;;;12.63;10.40;;;7.50;99.90;;;;;;4997007;28;20680;-67
2023/04/16 04:16:00;;;;;;;15.50;10.27;;;7.50;99.90;;;;;;5014739;28;20178;-67
2023/04/16 04:18:25;;;;;;;12.60;9.50;;;7.50;99.90;;;;;;5013962;28;20174;-67
2023/04/16 04:20:51;;;;;;;16.17;10.57;;;7.50;99.90;;;;;;5014580;28;20648;-67
2023/04/16 04:23:16;;;;;;;10.60;9.07;;;7.60;99.90;;;;;;5014490;28;20221;-67
2023/04/16 04:25:43;;;;;;;13.00;8.90;;;7.60;99.90;;;;;;5014543;28;20194;-67
2023/04/16 04:28:08;;;;;;;11.80;9.70;;;7.60;99.90;;;;;;5014279;28;20711;-67
2023/04/16 04:30:37;;;;;;;13.93;10.67;;;7.50;99.90;;;;;;5014078;28;20439;-67
2023/04/16 04:33:02;;;;;;;11.57;9.80;;;7.60;99.90;;;;;;5014268;28;20178;-67
2023/04/16 04:35:28;;;;;;;10.50;8.63;;;7.60;99.90;;;;;;5014329;28;20915;-67
2023/04/16 04:37:53;;;;;;;13.10;8.87;;;7.60;99.90;;;;;;5014196;28;20189;-67
2023/04/16 04:40:19;;;;;;;11.40;9.03;;;7.50;99.90;;;;;;5013605;28;20167;-67
2023/04/16 04:42:44;;;;;;;16.07;9.73;;;7.50;99.90;;;;;;5014164;28;20214;-67
2023/04/16 04:45:10;;;;;;;14.90;9.57;;;7.50;99.90;;;;;;5013048;28;20217;-67
2023/04/16 04:47:36;;;;;;;13.93;9.67;;;7.50;99.90;;;;;;5014051;28;20230;-67
2023/04/16 04:50:01;;;;;;;12.77;9.00;;;7.50;99.90;;;;;;5013343;28;20225;-67
2023/04/16 04:52:27;;;;;;;13.10;9.97;;;7.60;99.90;;;;;;5014109;28;20254;-67
2023/04/16 04:54:52;;;;;;;11.80;9.67;;;7.60;99.90;;;;;;5013931;28;20214;-67
2023/04/16 04:57:18;;;;;;;12.50;9.57;;;7.60;99.90;;;;;;5013953;28;20794;-67
2023/04/16 04:59:43;;;;;;;14.13;9.30;;;7.60;99.90;;;;;;5013310;28;20698;-67
2023/04/16 05:02:09;;;;;;;14.43;9.30;;;7.60;99.90;;;;;;5013910;28;20171;-67
2023/04/16 05:04:34;;;;;;;14.13;9.57;;;7.60;99.90;;;;;;5013649;28;20199;-67
2023/04/16 05:07:01;;;;;;;11.33;9.07;;;7.50;99.90;;;;;;5014025;28;20318;-67
2023/04/16 05:09:26;;;;;;;15.73;10.30;;;7.60;99.90;;;;;;5013080;28;20174;-67
2023/04/16 05:11:52;;;;;;;13.20;10.00;;;7.60;99.90;;;;;;5013698;28;20418;-67
2023/04/16 05:14:17;;;;;;;11.53;9.10;;;7.60;99.90;;;;;;5013502;28;20290;-67
2023/04/16 05:16:43;;;;;;;14.70;9.40;;;7.50;99.90;;;;;;5013633;28;20167;-67
2023/04/16 05:19:08;;;;;;;16.73;10.00;;;7.60;99.90;;;;;;5012751;28;20251;-67
2023/04/16 05:21:34;;;;;;;12.73;9.47;;;7.60;99.90;;;;;;5013757;28;20174;-67
2023/04/16 05:23:59;;;;;;;12.30;10.07;;;7.50;99.90;;;;;;5013383;28;20191;-67
2023/04/16 05:26:25;;;;;;;18.30;10.87;;;7.60;99.90;;;;;;5013351;28;20202;-67
2023/04/16 05:28:50;;;;;;;14.07;10.43;;;7.60;99.90;;;;;;5012698;28;20667;-67
2023/04/16 05:31:16;;;;;;;15.57;11.30;;;7.60;99.90;;;;;;5012418;28;20183;-67
2023/04/16 05:33:41;;;;;;;15.43;11.20;;;7.50;99.90;;;;;;5013240;28;20203;-67
2023/04/16 05:36:07;;;;;;;18.70;11.50;;;7.50;99.90;;;;;;5013309;28;20237;-67
2023/04/16 05:38:32;;;;;;;15.73;13.00;;;7.50;99.90;;;;;;5012476;28;20167;-67
2023/04/16 05:40:58;;;;;;;28.03;16.17;;;7.50;99.90;;;;;;5013170;28;20224;-67
2023/04/16 05:43:23;;;;;;;24.63;16.23;;;7.50;99.90;;;;;;5012962;28;20209;-67
2023/04/16 05:45:49;;;;;;;23.50;17.27;;;7.50;99.90;;;;;;5012062;28;20170;-68
2023/04/16 05:48:14;;;;;;;27.27;17.57;;;7.50;99.90;;;;;;5012296;28;20171;-67
2023/04/16 05:50:40;;;;;;;25.07;17.70;;;7.50;99.90;;;;;;5013013;28;20171;-67
2023/04/16 05:53:07;;;;;;;29.50;19.83;;;7.50;99.90;;;;;;5012802;28;20179;-67
2023/04/16 05:55:35;;;;;;;28.97;20.87;;;7.50;99.90;;;;;;5012972;28;20175;-67
2023/04/16 05:58:03;;;;;;;29.70;20.30;;;7.50;99.90;;;;;;5012784;28;20425;-67
2023/04/16 06:00:29;;;;;;;37.77;23.50;;;7.50;99.90;;;;;;5012158;28;20413;-67
2023/04/16 06:02:54;;;;;;;36.83;20.50;;;7.50;99.90;;;;;;5012674;28;20418;-67
2023/04/16 06:05:20;;;;;;;35.03;21.03;;;7.50;99.90;;;;;;5012786;28;20433;-67
2023/04/16 06:07:46;;;;;;;33.13;22.23;;;7.50;99.90;;;;;;5012747;28;20632;-67
2023/04/16 06:10:11;;;;;;;37.13;21.67;;;7.40;99.90;;;;;;5011947;28;20250;-67
2023/04/16 06:12:37;;;;;;;37.23;22.60;;;7.50;99.90;;;;;;5012653;28;20179;-67
2023/04/16 06:15:03;;;;;;;35.83;22.20;;;7.50;99.90;;;;;;5012388;28;20229;-67
2023/04/16 06:17:28;;;;;;;34.70;23.43;;;7.60;99.90;;;;;;5012686;28;20221;-67
2023/04/16 06:19:54;;;;;;;37.00;22.37;;;7.50;99.90;;;;;;5011725;28;20516;-67
2023/04/16 06:22:19;;;;;;;35.40;22.70;;;7.50;99.90;;;;;;5012628;28;20225;-67
2023/04/16 06:24:45;;;;;;;34.40;22.70;;;7.60;99.90;;;;;;5012384;28;20202;-67
2023/04/16 06:27:10;;;;;;;34.57;26.63;;;7.60;99.90;;;;;;5012488;28;20652;-67
2023/04/16 06:29:36;;;;;;;36.07;24.30;;;7.50;99.90;;;;;;5011655;28;20193;-67
2023/04/16 06:32:02;;;;;;;35.60;22.33;;;7.50;99.90;;;;;;5012378;28;20182;-67
2023/04/16 06:34:28;;;;;;;37.27;24.93;;;7.50;99.90;;;;;;5012194;28;20294;-67
2023/04/16 06:36:54;;;;;;;37.00;23.00;;;7.60;99.90;;;;;;5012349;28;21007;-67
2023/04/16 06:39:22;;;;;;;43.13;24.93;;;7.60;99.90;;;;;;5011599;28;20546;-67
2023/04/16 06:41:48;;;;;;;40.47;24.37;;;7.60;99.90;;;;;;5012146;28;20177;-67
2023/04/16 06:44:14;;;;;;;40.90;26.43;;;7.60;99.90;;;;;;5010264;28;20453;-67
2023/04/16 06:46:40;;;;;;;37.90;24.07;;;7.60;99.90;;;;;;5012263;28;20175;-67
2023/04/16 06:49:06;;;;;;;37.20;24.60;;;7.60;99.90;;;;;;5011561;28;20221;-67
2023/04/16 06:51:31;;;;;;;37.10;24.30;;;7.60;99.90;;;;;;5012203;28;20937;-67
2023/04/16 06:53:57;;;;;;;38.23;24.87;;;7.60;99.90;;;;;;5012108;28;21005;-67
2023/04/16 06:56:22;;;;;;;40.70;29.13;;;7.70;99.90;;;;;;5012166;28;20205;-67
2023/04/16 06:58:49;;;;;;;32.70;23.13;;;7.60;99.90;;;;;;5011428;28;20225;-67
2023/04/16 07:01:15;;;;;;;38.43;25.47;;;7.60;99.90;;;;;;5012152;28;20641;-67
2023/04/16 07:03:41;;;;;;;30.40;21.77;;;7.70;99.90;;;;;;5011993;28;21047;-66
2023/04/16 07:06:06;;;;;;;38.00;26.07;;;7.70;99.90;;;;;;5012111;28;20430;-67
2023/04/16 07:08:32;;;;;;;33.93;24.07;;;7.70;99.90;;;;;;5011399;28;20730;-67
2023/04/16 07:10:57;;;;;;;35.13;22.87;;;7.80;99.90;;;;;;5011979;28;20171;-67
2023/04/16 07:13:23;;;;;;;36.57;23.27;;;7.80;99.90;;;;;;5011831;28;20194;-67
2023/04/16 07:15:48;;;;;;;32.27;23.70;;;7.80;99.90;;;;;;5011959;28;20787;-67
2023/04/16 07:18:14;;;;;;;36.20;23.07;;;7.80;99.90;;;;;;5011184;28;20167;-67
2023/04/16 07:20:40;;;;;;;33.83;23.70;;;7.80;99.90;;;;;;5011970;28;20178;-67
2023/04/16 07:23:05;;;;;;;31.80;23.40;;;7.80;99.90;;;;;;5011808;28;20425;-67
2023/04/16 07:25:31;;;;;;;37.63;24.23;;;7.80;99.90;;;;;;5011807;28;20174;-67
2023/04/16 07:27:56;;;;;;;31.10;20.50;;;7.80;99.90;;;;;;5012050;28;20175;-67
2023/04/16 07:30:22;;;;;;;30.17;22.57;;;7.80;99.90;;;;;;5011237;28;20657;-67
2023/04/16 07:32:47;;;;;;;39.33;25.07;;;7.80;99.90;;;;;;5011833;28;20206;-67
2023/04/16 07:35:13;;;;;;;32.53;23.30;;;7.80;99.90;;;;;;5011634;28;20207;-67
2023/04/16 07:37:38;;;;;;;34.67;22.70;;;7.80;99.90;;;;;;5011784;28;20250;-67
2023/04/16 07:40:05;;;;;;;32.50;21.87;;;7.80;99.90;;;;;;5010911;28;20190;-67
2023/04/16 07:42:30;;;;;;;34.67;23.03;;;8.00;99.90;;;;;;5011920;28;20593;-67
2023/04/16 07:44:57;;;;;;;31.33;23.27;;;8.00;99.90;;;;;;5011534;28;20462;-67
2023/04/16 07:47:22;;;;;;;33.60;23.10;;;8.00;99.90;;;;;;5011708;28;20428;-67
2023/04/16 07:49:49;;;;;;;31.50;22.47;;;8.00;99.90;;;;;;5010917;28;20174;-67
2023/04/16 07:52:15;;;;;;;32.73;22.33;;;8.00;99.90;;;;;;5011675;28;20612;-67
2023/04/16 07:54:40;;;;;;;28.47;20.17;;;8.10;99.90;;;;;;4995350;28;20461;-67
2023/04/16 07:57:06;;;;;;;31.40;20.33;;;8.00;99.90;;;;;;5015172;28;20274;-67
2023/04/16 07:59:31;;;;;;;26.00;19.50;;;8.00;99.90;;;;;;5014420;28;20173;-67
2023/04/16 08:01:57;;;;;;;28.10;20.03;;;8.00;99.90;;;;;;5015091;28;20174;-66
2023/04/16 08:04:23;;;;;;;29.20;19.80;;;8.00;99.90;;;;;;5014976;28;20191;-67
2023/04/16 08:06:50;;;;;;;28.70;21.20;;;8.10;99.90;;;;;;5015142;28;20616;-67
2023/04/16 08:09:15;;;;;;;26.60;20.30;;;8.00;99.90;;;;;;5014208;28;20549;-67
2023/04/16 08:11:41;;;;;;;31.53;21.20;;;8.10;99.90;;;;;;5014883;28;20455;-67
2023/04/16 08:14:07;;;;;;;29.40;21.63;;;8.20;99.90;;;;;;5014812;28;20619;-67
2023/04/16 08:16:32;;;;;;;29.53;21.40;;;8.20;99.90;;;;;;5014819;28;20170;-67
2023/04/16 08:18:59;;;;;;;26.40;19.03;;;8.30;99.90;;;;;;5013963;28;20163;-67
2023/04/16 08:21:26;;;;;;;27.40;20.70;;;8.30;99.90;;;;;;5014618;28;20163;-67
2023/04/16 08:23:52;;;;;;;26.13;18.63;;;8.30;99.90;;;;;;5014427;28;20537;-67
2023/04/16 08:26:18;;;;;;;26.40;19.50;;;8.30;99.90;;;;;;5014671;28;20492;-67
2023/04/16 08:28:43;;;;;;;26.03;20.53;;;8.30;99.90;;;;;;5013761;28;20426;-67
2023/04/16 08:31:09;;;;;;;29.73;18.13;;;8.30;99.90;;;;;;5014523;28;20262;-67
2023/04/16 08:33:34;;;;;;;27.10;19.30;;;8.30;99.90;;;;;;5014268;28;20206;-67
2023/04/16 08:36:00;;;;;;;25.33;19.53;;;8.20;99.90;;;;;;5014534;28;20250;-67
2023/04/16 08:38:26;;;;;;;25.07;18.67;;;8.30;99.90;;;;;;5013556;28;20638;-67
2023/04/16 08:40:53;;;;;;;27.43;19.87;;;8.20;99.90;;;;;;5014281;28;20174;-67
2023/04/16 08:43:22;;;;;;;24.83;20.00;;;8.20;99.90;;;;;;5014046;28;20860;-67
2023/04/16 08:45:48;;;;;;;24.93;19.60;;;8.30;99.90;;;;;;5014219;28;20421;-67
2023/04/16 08:48:14;;;;;;;25.10;18.27;;;8.30;99.90;;;;;;5013484;28;20418;-67
2023/04/16 08:50:40;;;;;;;23.00;18.03;;;8.30;99.90;;;;;;5014090;28;20577;-67
2023/04/16 08:53:09;;;;;;;24.80;19.90;;;8.20;99.90;;;;;;5013961;28;20418;-67
2023/04/16 08:55:41;;;;;;;26.13;18.00;;;8.30;99.90;;;;;;5014088;28;20709;-67
2023/04/16 08:58:20;;;;;;;27.60;20.43;;;8.30;99.90;;;;;;5013821;28;20483;-67
2023/04/16 09:00:47;;;;;;;23.67;18.07;;;8.30;99.90;;;;;;5014076;28;20531;-67
2023/04/16 09:03:13;;;;;;;22.87;17.50;;;8.40;99.90;;;;;;5013639;28;20489;-67
2023/04/16 09:05:38;;;;;;;24.30;18.73;;;8.30;99.90;;;;;;5012895;28;20422;-67
2023/04/16 09:08:05;;;;;;;24.87;17.70;;;8.40;99.90;;;;;;5013748;28;20314;-67
2023/04/16 09:10:31;;;;;;;21.87;16.80;;;8.40;99.90;;;;;;4995526;28;20194;-67
2023/04/16 09:12:57;;;;;;;22.30;18.10;;;8.50;99.90;;;;;;5013643;28;20952;-67
2023/04/16 09:15:28;;;;;;;23.53;17.03;;;8.50;99.90;;;;;;5013583;28;20453;-67
2023/04/16 09:17:55;;;;;;;23.13;15.90;;;8.60;99.90;;;;;;5013390;28;20421;-67
2023/04/16 09:20:21;;;;;;;19.33;14.50;;;8.70;99.90;;;;;;5012894;28;20422;-67
2023/04/16 09:22:47;;;;;;;17.93;14.70;;;8.60;99.90;;;;;;5013408;28;20424;-67
2023/04/16 09:25:12;;;;;;;18.83;14.87;;;8.70;99.90;;;;;;5013414;28;20225;-67
2023/04/16 09:27:39;;;;;;;22.97;15.37;;;8.70;99.90;;;;;;5013460;28;20879;-67
2023/04/16 09:30:26;;;;;;;24.63;17.20;;;8.70;99.90;;;;;;5012816;28;20261;-67
2023/04/16 09:33:10;;;;;;;19.50;16.20;;;8.70;99.90;;;;;;5013371;28;20919;-67
2023/04/16 09:35:45;;;;;;;19.60;15.40;;;8.70;99.90;;;;;;5013257;28;20429;-66
2023/04/16 09:38:10;;;;;;;22.83;16.13;;;8.80;99.90;;;;;;5012827;28;20504;-67
2023/04/16 09:40:36;;;;;;;22.90;17.90;;;8.80;99.90;;;;;;5012917;28;20513;-67
2023/04/16 09:43:16;;;;;;;21.77;17.27;;;8.90;99.90;;;;;;5012963;28;20608;-67
2023/04/16 09:45:52;;;;;;;19.70;16.70;;;8.90;99.90;;;;;;5010834;23;20222;-66
2023/04/16 09:48:31;;;;;;;20.90;15.13;;;8.90;99.90;;;;;;4992656;28;20429;-66
2023/04/16 09:50:58;;;;;;;26.03;18.53;;;8.90;99.90;;;;;;4993433;28;20481;-66
2023/04/16 09:53:25;;;;;;;23.77;15.80;;;8.90;99.90;;;;;;4993357;28;20419;-67
2023/04/16 09:55:51;;;;;;;23.27;16.53;;;9.00;99.90;;;;;;4993231;28;20454;-67
2023/04/16 09:58:20;;;;;;;22.73;16.73;;;9.00;99.90;;;;;;4992548;28;20425;-67
2023/04/16 10:00:45;;;;;;;20.30;16.10;;;9.10;99.90;;;;;;4993279;28;20518;-67
2023/04/16 10:03:11;;;;;;;21.53;16.07;;;9.10;99.90;;;;;;4993225;28;20497;-66
2023/04/16 10:05:36;;;;;;;26.67;16.23;;;9.00;99.90;;;;;;4993117;28;20234;-66
2023/04/16 10:08:09;;;;;;;27.43;16.57;;;9.00;99.90;;;;;;4993165;28;20207;-67
2023/04/16 10:10:35;;;;;;;23.57;17.43;;;9.10;99.90;;;;;;4992895;28;20171;-66
2023/04/16 10:13:01;;;;;;;23.83;17.20;;;9.00;99.90;;;;;;4992978;28;20441;-67
2023/04/16 10:15:27;;;;;;;23.00;16.37;;;8.90;99.90;;;;;;4992924;28;20551;-66
2023/04/16 10:17:53;;;;;;;23.13;17.27;;;9.00;99.90;;;;;;4992995;28;20418;-67
2023/04/16 10:20:18;;;;;;;19.90;15.43;;;9.00;99.90;;;;;;4992360;28;20590;-66
2023/04/16 10:22:44;;;;;;;24.03;16.90;;;9.00;99.90;;;;;;4992933;28;20558;-67
2023/04/16 10:25:10;;;;;;;23.40;16.70;;;9.10;99.90;;;;;;4992845;28;20199;-66
2023/04/16 10:27:37;;;;;;;23.73;17.40;;;9.00;99.90;;;;;;4992806;28;20761;-66
2023/04/16 10:30:03;;;;;;;24.83;16.97;;;9.00;99.90;;;;;;4992096;28;20434;-67
2023/04/16 10:32:30;;;;;;;26.33;19.00;;;9.00;99.90;;;;;;4992689;28;20419;-67
2023/04/16 10:34:56;;;;;;;24.33;17.03;;;9.10;99.90;;;;;;4992585;28;20529;-66
2023/04/16 10:37:30;;;;;;;20.60;16.87;;;9.10;99.90;;;;;;4992699;28;20928;-67
2023/04/16 10:39:56;;;;;;;22.07;16.37;;;9.10;99.90;;;;;;4992331;28;20945;-67
2023/04/16 10:42:22;;;;;;;23.67;16.87;;;9.20;99.90;;;;;;4992667;28;20940;-67
2023/04/16 10:44:47;;;;;;;18.63;15.03;;;9.30;99.90;;;;;;4992532;28;20497;-67
2023/04/16 10:47:13;;;;;;;22.20;17.07;;;9.40;99.90;;;;;;4992730;28;20181;-67
2023/04/16 10:49:40;;;;;;;23.50;16.83;;;9.30;99.90;;;;;;4991856;28;20436;-67
2023/04/16 10:52:11;;;;;;;20.17;15.80;;;9.20;99.90;;;;;;4992593;28;20966;-67
2023/04/16 10:54:37;;;;;;;23.50;17.20;;;9.20;99.90;;;;;;4992427;28;20497;-67
2023/04/16 10:57:05;;;;;;;20.20;15.70;;;9.40;99.90;;;;;;4991332;28;20447;-66
2023/04/16 10:59:34;;;;;;;19.20;14.77;;;9.50;99.90;;;;;;4991946;28;20234;-67
2023/04/16 11:02:01;;;;;;;19.00;15.70;;;9.40;99.90;;;;;;4992524;28;20502;-67
2023/04/16 11:04:31;;;;;;;19.37;14.23;;;9.40;99.90;;;;;;4992342;28;20434;-67
2023/04/16 11:07:04;;;;;;;20.20;14.43;;;9.50;99.90;;;;;;4992561;28;20422;-67
2023/04/16 11:10:02;;;;;;;20.60;13.37;;;9.40;99.90;;;;;;4991713;28;20427;-67
2023/04/16 11:12:28;;;;;;;18.37;14.97;;;9.50;99.90;;;;;;4992429;28;20506;-66
2023/04/16 11:15:21;;;;;;;16.03;12.90;;;9.60;99.90;;;;;;4992284;28;20540;-67
2023/04/16 11:17:50;;;;;;;17.07;12.57;;;9.70;99.90;;;;;;4992393;28;20247;-67
2023/04/16 11:20:19;;;;;;;16.30;12.30;;;9.70;99.90;;;;;;4991607;28;20419;-67
2023/04/16 11:22:45;;;;;;;17.87;11.67;;;9.80;99.90;;;;;;4992353;28;20421;-66
2023/04/16 11:25:11;;;;;;;16.90;12.07;;;9.70;99.90;;;;;;4992315;28;20450;-66
2023/04/16 11:27:37;;;;;;;18.20;11.77;;;9.80;99.90;;;;;;4992292;28;20199;-67
2023/04/16 11:30:10;;;;;;;14.70;12.07;;;9.90;99.90;;;;;;4992602;28;20167;-66
2023/04/16 11:32:37;;;;;;;14.33;10.10;;;9.90;99.90;;;;;;4995965;28;20422;-66
2023/04/16 11:35:12;;;;;;;12.47;10.67;;;9.80;99.90;;;;;;4995752;28;20473;-67
2023/04/16 11:37:38;;;;;;;13.53;9.40;;;9.80;99.90;;;;;;4996157;28;20422;-67
2023/04/16 11:40:08;;;;;;;11.90;9.10;;;9.70;99.90;;;;;;4995181;28;20419;-67
2023/04/16 11:42:39;;;;;;;10.97;7.93;;;9.70;99.90;;;;;;4995737;28;20541;-66
2023/04/16 11:45:06;;;;;;;10.37;8.30;;;9.60;99.90;;;;;;4993969;28;20552;-67
2023/04/16 11:47:45;;;;;;;10.20;8.43;;;9.70;99.90;;;;;;4995683;28;20449;-67
2023/04/16 11:50:25;;;;;;;8.10;7.30;;;9.60;99.90;;;;;;4994941;28;20839;-67
2023/04/16 11:52:55;;;;;;;11.00;7.30;;;9.70;99.90;;;;;;4995529;28;20442;-67
2023/04/16 11:55:21;;;;;;;9.90;8.13;;;9.70;99.90;;;;;;4995591;28;20475;-66
2023/04/16 11:57:47;;;;;;;7.87;7.07;;;9.70;99.90;;;;;;4994224;28;20430;-67
2023/04/16 12:00:13;;;;;;;19.83;8.87;;;9.70;99.90;;;;;;4994837;28;20849;-67
2023/04/16 12:02:40;;;;;;;8.07;6.90;;;9.80;99.90;;;;;;4995365;28;20457;-67
2023/04/16 12:05:27;;;;;;;6.67;5.97;;;9.70;99.90;;;;;;4995462;28;20445;-67
2023/04/16 12:07:53;;;;;;;7.73;5.77;;;9.60;99.90;;;;;;4994848;28;20522;-67
2023/04/16 12:10:19;;;;;;;8.70;6.10;;;9.60;99.90;;;;;;4994688;28;20450;-67
2023/04/16 12:12:44;;;;;;;6.97;5.60;;;9.60;99.90;;;;;;4995228;28;20255;-67
2023/04/16 12:15:10;;;;;;;6.90;5.67;;;9.60;99.90;;;;;;4995082;28;20204;-67
2023/04/16 12:17:37;;;;;;;10.00;6.10;;;9.70;99.90;;;;;;4995357;28;20645;-67
2023/04/16 12:20:08;;;;;;;9.60;5.63;;;9.70;99.90;;;;;;4994278;28;20167;-67
2023/04/16 12:22:38;;;;;;;7.63;5.43;;;9.80;99.90;;;;;;4995125;28;20442;-67
2023/04/16 12:25:11;;;;;;;5.00;4.40;;;9.70;99.90;;;;;;4995023;28;20474;-67
2023/04/16 12:27:56;;;;;;;7.00;6.30;;;9.80;99.90;;;;;;4994833;28;20434;-67
2023/04/16 12:30:25;;;;;;;6.47;4.33;;;9.90;99.90;;;;;;4994661;28;20967;-67
2023/04/16 12:32:53;;;;;;;5.90;4.80;;;9.90;99.90;;;;;;4994908;28;20837;-67
2023/04/16 12:35:32;;;;;;;5.67;5.07;;;9.80;99.90;;;;;;4994707;28;20459;-67
2023/04/16 12:37:58;;;;;;;5.30;4.20;;;9.80;99.90;;;;;;4994723;28;20419;-67
2023/04/16 12:40:24;;;;;;;5.00;4.50;;;9.80;99.90;;;;;;4994033;28;20780;-67